sensor_id;sensor_type;location;lat;lon;timestamp;P1;durP1;ratioP1;P2;durP2;ratioP2
53927;SDS011;39837;47.630;18.822;2024-02-15T00:02:22;10.73;;;6.50;;
53927;SDS011;39837;47.630;18.822;2024-02-15T00:05:06;11.93;;;6.65;;
53927;SDS011;39837;47.630;18.822;2024-02-15T00:07:51;22.23;;;7.97;;
53927;SDS011;39837;47.630;18.822;2024-02-15T00:10:36;21.27;;;6.93;;
53927;SDS011;39837;47.630;18.822;2024-02-15T00:13:20;6.78;;;5.90;;
53927;SDS011;39837;47.630;18.822;2024-02-15T00:16:04;6.95;;;6.00;;
53927;SDS011;39837;47.630;18.822;2024-02-15T00:18:48;12.82;;;6.07;;
53927;SDS011;39837;47.630;18.822;2024-02-15T00:21:33;13.50;;;5.63;;
53927;SDS011;39837;47.630;18.822;2024-02-15T00:24:22;9.90;;;5.82;;
53927;SDS011;39837;47.630;18.822;2024-02-15T00:27:07;13.52;;;6.22;;
53927;SDS011;39837;47.630;18.822;2024-02-15T00:29:51;7.53;;;5.55;;
53927;SDS011;39837;47.630;18.822;2024-02-15T00:32:36;7.18;;;5.65;;
53927;SDS011;39837;47.630;18.822;2024-02-15T00:35:20;13.95;;;6.10;;
53927;SDS011;39837;47.630;18.822;2024-02-15T00:38:04;8.05;;;6.35;;
53927;SDS011;39837;47.630;18.822;2024-02-15T00:40:50;11.45;;;6.40;;
53927;SDS011;39837;47.630;18.822;2024-02-15T00:43:34;17.83;;;7.07;;
53927;SDS011;39837;47.630;18.822;2024-02-15T00:46:19;7.65;;;5.70;;
53927;SDS011;39837;47.630;18.822;2024-02-15T00:49:04;9.55;;;6.22;;
53927;SDS011;39837;47.630;18.822;2024-02-15T00:51:49;10.45;;;6.13;;
53927;SDS011;39837;47.630;18.822;2024-02-15T00:54:34;10.07;;;5.40;;
53927;SDS011;39837;47.630;18.822;2024-02-15T00:57:18;10.88;;;6.57;;
53927;SDS011;39837;47.630;18.822;2024-02-15T01:00:02;10.07;;;6.20;;
53927;SDS011;39837;47.630;18.822;2024-02-15T01:02:50;7.30;;;6.30;;
53927;SDS011;39837;47.630;18.822;2024-02-15T01:05:34;8.60;;;6.07;;
53927;SDS011;39837;47.630;18.822;2024-02-15T01:08:18;9.20;;;6.28;;
53927;SDS011;39837;47.630;18.822;2024-02-15T01:11:03;8.25;;;6.38;;
53927;SDS011;39837;47.630;18.822;2024-02-15T01:13:48;13.57;;;6.38;;
53927;SDS011;39837;47.630;18.822;2024-02-15T01:16:33;9.18;;;6.28;;
53927;SDS011;39837;47.630;18.822;2024-02-15T01:19:19;8.98;;;6.53;;
53927;SDS011;39837;47.630;18.822;2024-02-15T01:22:03;8.07;;;6.40;;
53927;SDS011;39837;47.630;18.822;2024-02-15T01:24:47;9.70;;;6.68;;
53927;SDS011;39837;47.630;18.822;2024-02-15T01:27:31;9.98;;;6.53;;
53927;SDS011;39837;47.630;18.822;2024-02-15T01:30:15;7.45;;;5.90;;
53927;SDS011;39837;47.630;18.822;2024-02-15T01:33:00;10.60;;;6.68;;
53927;SDS011;39837;47.630;18.822;2024-02-15T01:35:44;12.60;;;7.38;;
53927;SDS011;39837;47.630;18.822;2024-02-15T01:38:28;13.80;;;7.10;;
53927;SDS011;39837;47.630;18.822;2024-02-15T01:41:12;10.85;;;6.90;;
53927;SDS011;39837;47.630;18.822;2024-02-15T01:43:57;16.85;;;6.90;;
53927;SDS011;39837;47.630;18.822;2024-02-15T01:46:42;13.57;;;7.13;;
53927;SDS011;39837;47.630;18.822;2024-02-15T01:49:26;15.85;;;7.80;;
53927;SDS011;39837;47.630;18.822;2024-02-15T01:52:11;12.02;;;7.10;;
53927;SDS011;39837;47.630;18.822;2024-02-15T01:54:56;11.05;;;7.38;;
53927;SDS011;39837;47.630;18.822;2024-02-15T01:57:43;10.02;;;6.65;;
53927;SDS011;39837;47.630;18.822;2024-02-15T02:00:29;9.35;;;6.22;;
53927;SDS011;39837;47.630;18.822;2024-02-15T02:03:14;12.52;;;7.05;;
53927;SDS011;39837;47.630;18.822;2024-02-15T02:05:58;11.82;;;6.53;;
53927;SDS011;39837;47.630;18.822;2024-02-15T02:08:44;16.10;;;6.75;;
53927;SDS011;39837;47.630;18.822;2024-02-15T02:11:28;13.15;;;6.45;;
53927;SDS011;39837;47.630;18.822;2024-02-15T02:14:13;9.68;;;5.70;;
53927;SDS011;39837;47.630;18.822;2024-02-15T02:17:10;7.32;;;5.45;;
53927;SDS011;39837;47.630;18.822;2024-02-15T02:19:54;8.60;;;5.85;;
53927;SDS011;39837;47.630;18.822;2024-02-15T02:22:38;15.13;;;5.70;;
53927;SDS011;39837;47.630;18.822;2024-02-15T02:25:24;9.15;;;6.40;;
53927;SDS011;39837;47.630;18.822;2024-02-15T02:28:10;8.10;;;5.40;;
53927;SDS011;39837;47.630;18.822;2024-02-15T02:30:54;13.25;;;5.55;;
53927;SDS011;39837;47.630;18.822;2024-02-15T02:33:38;12.43;;;6.00;;
53927;SDS011;39837;47.630;18.822;2024-02-15T02:36:22;8.82;;;5.82;;
53927;SDS011;39837;47.630;18.822;2024-02-15T02:39:10;15.13;;;6.22;;
53927;SDS011;39837;47.630;18.822;2024-02-15T02:41:54;7.85;;;5.90;;
53927;SDS011;39837;47.630;18.822;2024-02-15T02:44:38;10.27;;;6.53;;
53927;SDS011;39837;47.630;18.822;2024-02-15T02:47:21;17.88;;;6.65;;
53927;SDS011;39837;47.630;18.822;2024-02-15T02:50:06;7.82;;;6.68;;
53927;SDS011;39837;47.630;18.822;2024-02-15T02:52:52;10.88;;;6.13;;
53927;SDS011;39837;47.630;18.822;2024-02-15T02:55:36;9.75;;;6.18;;
53927;SDS011;39837;47.630;18.822;2024-02-15T02:58:20;9.80;;;6.55;;
53927;SDS011;39837;47.630;18.822;2024-02-15T03:01:04;9.27;;;5.47;;
53927;SDS011;39837;47.630;18.822;2024-02-15T03:03:48;9.77;;;4.65;;
53927;SDS011;39837;47.630;18.822;2024-02-15T03:06:33;10.95;;;5.72;;
53927;SDS011;39837;47.630;18.822;2024-02-15T03:09:17;8.30;;;5.55;;
53927;SDS011;39837;47.630;18.822;2024-02-15T03:12:04;16.15;;;4.75;;
53927;SDS011;39837;47.630;18.822;2024-02-15T03:14:48;9.77;;;4.88;;
53927;SDS011;39837;47.630;18.822;2024-02-15T03:17:32;7.80;;;4.95;;
53927;SDS011;39837;47.630;18.822;2024-02-15T03:20:17;9.00;;;5.15;;
53927;SDS011;39837;47.630;18.822;2024-02-15T03:23:04;13.32;;;5.18;;
53927;SDS011;39837;47.630;18.822;2024-02-15T03:25:48;5.65;;;4.97;;
53927;SDS011;39837;47.630;18.822;2024-02-15T03:28:33;7.57;;;4.68;;
53927;SDS011;39837;47.630;18.822;2024-02-15T03:31:19;10.75;;;5.55;;
53927;SDS011;39837;47.630;18.822;2024-02-15T03:34:04;7.97;;;4.85;;
53927;SDS011;39837;47.630;18.822;2024-02-15T03:36:49;8.40;;;5.15;;
53927;SDS011;39837;47.630;18.822;2024-02-15T03:39:37;7.32;;;5.25;;
53927;SDS011;39837;47.630;18.822;2024-02-15T03:42:21;8.18;;;4.95;;
53927;SDS011;39837;47.630;18.822;2024-02-15T03:45:05;5.00;;;3.85;;
53927;SDS011;39837;47.630;18.822;2024-02-15T03:47:51;6.75;;;4.63;;
53927;SDS011;39837;47.630;18.822;2024-02-15T03:50:36;5.25;;;4.53;;
53927;SDS011;39837;47.630;18.822;2024-02-15T03:53:20;5.65;;;4.47;;
53927;SDS011;39837;47.630;18.822;2024-02-15T03:56:05;9.30;;;4.10;;
53927;SDS011;39837;47.630;18.822;2024-02-15T04:01:35;6.13;;;3.95;;
53927;SDS011;39837;47.630;18.822;2024-02-15T04:04:19;13.85;;;4.90;;
53927;SDS011;39837;47.630;18.822;2024-02-15T04:07:07;7.60;;;5.13;;
53927;SDS011;39837;47.630;18.822;2024-02-15T04:09:51;6.82;;;5.07;;
53927;SDS011;39837;47.630;18.822;2024-02-15T04:12:36;11.57;;;5.43;;
53927;SDS011;39837;47.630;18.822;2024-02-15T04:15:20;7.05;;;5.22;;
53927;SDS011;39837;47.630;18.822;2024-02-15T04:18:04;8.55;;;5.63;;
53927;SDS011;39837;47.630;18.822;2024-02-15T04:20:49;8.00;;;6.15;;
53927;SDS011;39837;47.630;18.822;2024-02-15T04:23:33;6.88;;;5.68;;
53927;SDS011;39837;47.630;18.822;2024-02-15T04:26:17;8.32;;;5.50;;
53927;SDS011;39837;47.630;18.822;2024-02-15T04:31:47;10.63;;;5.50;;
53927;SDS011;39837;47.630;18.822;2024-02-15T04:34:33;12.75;;;6.57;;
53927;SDS011;39837;47.630;18.822;2024-02-15T04:37:17;16.30;;;6.55;;
53927;SDS011;39837;47.630;18.822;2024-02-15T04:40:01;9.73;;;5.53;;
53927;SDS011;39837;47.630;18.822;2024-02-15T04:42:51;8.45;;;5.38;;
53927;SDS011;39837;47.630;18.822;2024-02-15T04:45:36;9.52;;;6.07;;
53927;SDS011;39837;47.630;18.822;2024-02-15T04:48:20;7.30;;;5.13;;
53927;SDS011;39837;47.630;18.822;2024-02-15T04:51:05;6.63;;;4.95;;
53927;SDS011;39837;47.630;18.822;2024-02-15T04:53:49;6.18;;;5.32;;
53927;SDS011;39837;47.630;18.822;2024-02-15T04:56:34;6.13;;;5.15;;
53927;SDS011;39837;47.630;18.822;2024-02-15T04:59:19;5.72;;;4.63;;
53927;SDS011;39837;47.630;18.822;2024-02-15T05:02:05;8.13;;;5.25;;
53927;SDS011;39837;47.630;18.822;2024-02-15T05:04:49;10.35;;;4.35;;
53927;SDS011;39837;47.630;18.822;2024-02-15T05:07:34;7.05;;;5.13;;
53927;SDS011;39837;47.630;18.822;2024-02-15T05:10:20;7.18;;;4.60;;
53927;SDS011;39837;47.630;18.822;2024-02-15T05:13:04;11.30;;;5.75;;
53927;SDS011;39837;47.630;18.822;2024-02-15T05:15:48;10.70;;;6.05;;
53927;SDS011;39837;47.630;18.822;2024-02-15T05:18:33;9.38;;;4.93;;
53927;SDS011;39837;47.630;18.822;2024-02-15T05:24:03;8.05;;;4.97;;
53927;SDS011;39837;47.630;18.822;2024-02-15T05:26:48;7.65;;;4.63;;
53927;SDS011;39837;47.630;18.822;2024-02-15T05:29:33;8.75;;;6.00;;
53927;SDS011;39837;47.630;18.822;2024-02-15T05:32:18;12.35;;;5.80;;
53927;SDS011;39837;47.630;18.822;2024-02-15T05:35:05;9.30;;;5.75;;
53927;SDS011;39837;47.630;18.822;2024-02-15T05:37:49;6.88;;;5.75;;
53927;SDS011;39837;47.630;18.822;2024-02-15T05:40:36;7.72;;;5.45;;
53927;SDS011;39837;47.630;18.822;2024-02-15T05:43:20;12.80;;;5.82;;
53927;SDS011;39837;47.630;18.822;2024-02-15T05:46:04;7.85;;;6.75;;
53927;SDS011;39837;47.630;18.822;2024-02-15T05:48:50;14.13;;;7.15;;
53927;SDS011;39837;47.630;18.822;2024-02-15T05:51:37;9.98;;;5.60;;
53927;SDS011;39837;47.630;18.822;2024-02-15T05:54:21;13.35;;;7.47;;
53927;SDS011;39837;47.630;18.822;2024-02-15T05:57:09;21.10;;;7.95;;
53927;SDS011;39837;47.630;18.822;2024-02-15T05:59:53;8.57;;;6.75;;
53927;SDS011;39837;47.630;18.822;2024-02-15T06:02:37;14.35;;;8.05;;
53927;SDS011;39837;47.630;18.822;2024-02-15T06:05:21;24.05;;;7.32;;
53927;SDS011;39837;47.630;18.822;2024-02-15T06:08:05;10.27;;;7.13;;
53927;SDS011;39837;47.630;18.822;2024-02-15T06:10:49;13.65;;;8.75;;
53927;SDS011;39837;47.630;18.822;2024-02-15T06:13:34;20.90;;;7.28;;
53927;SDS011;39837;47.630;18.822;2024-02-15T06:16:18;12.65;;;7.18;;
53927;SDS011;39837;47.630;18.822;2024-02-15T06:19:02;23.98;;;7.13;;
53927;SDS011;39837;47.630;18.822;2024-02-15T06:21:46;16.23;;;6.90;;
53927;SDS011;39837;47.630;18.822;2024-02-15T06:24:30;11.65;;;7.70;;
53927;SDS011;39837;47.630;18.822;2024-02-15T06:27:14;10.90;;;7.63;;
53927;SDS011;39837;47.630;18.822;2024-02-15T06:29:59;13.63;;;6.25;;
53927;SDS011;39837;47.630;18.822;2024-02-15T06:33:02;10.90;;;7.25;;
53927;SDS011;39837;47.630;18.822;2024-02-15T06:36:15;9.55;;;6.70;;
53927;SDS011;39837;47.630;18.822;2024-02-15T06:39:18;12.70;;;7.05;;
53927;SDS011;39837;47.630;18.822;2024-02-15T06:42:21;9.25;;;7.25;;
53927;SDS011;39837;47.630;18.822;2024-02-15T06:45:06;14.52;;;8.77;;
53927;SDS011;39837;47.630;18.822;2024-02-15T06:47:51;22.23;;;10.18;;
53927;SDS011;39837;47.630;18.822;2024-02-15T06:50:36;16.42;;;11.75;;
53927;SDS011;39837;47.630;18.822;2024-02-15T06:53:21;15.98;;;10.05;;
53927;SDS011;39837;47.630;18.822;2024-02-15T06:56:09;31.08;;;16.20;;
53927;SDS011;39837;47.630;18.822;2024-02-15T06:58:53;25.90;;;17.08;;
53927;SDS011;39837;47.630;18.822;2024-02-15T07:01:38;26.83;;;17.08;;
53927;SDS011;39837;47.630;18.822;2024-02-15T07:04:22;19.52;;;13.68;;
53927;SDS011;39837;47.630;18.822;2024-02-15T07:07:09;24.58;;;10.77;;
53927;SDS011;39837;47.630;18.822;2024-02-15T07:09:53;17.02;;;9.48;;
53927;SDS011;39837;47.630;18.822;2024-02-15T07:12:37;16.73;;;9.60;;
53927;SDS011;39837;47.630;18.822;2024-02-15T07:15:21;19.10;;;11.68;;
53927;SDS011;39837;47.630;18.822;2024-02-15T07:18:06;30.75;;;17.10;;
53927;SDS011;39837;47.630;18.822;2024-02-15T07:20:50;27.13;;;16.83;;
53927;SDS011;39837;47.630;18.822;2024-02-15T07:23:34;47.63;;;25.08;;
53927;SDS011;39837;47.630;18.822;2024-02-15T07:26:18;61.95;;;29.13;;
53927;SDS011;39837;47.630;18.822;2024-02-15T07:29:03;74.30;;;43.50;;
53927;SDS011;39837;47.630;18.822;2024-02-15T07:31:51;72.18;;;35.33;;
53927;SDS011;39837;47.630;18.822;2024-02-15T07:34:35;50.22;;;30.02;;
53927;SDS011;39837;47.630;18.822;2024-02-15T07:37:20;58.20;;;27.30;;
53927;SDS011;39837;47.630;18.822;2024-02-15T07:40:07;59.40;;;34.95;;
53927;SDS011;39837;47.630;18.822;2024-02-15T07:42:52;58.75;;;32.60;;
53927;SDS011;39837;47.630;18.822;2024-02-15T07:45:36;65.55;;;37.17;;
53927;SDS011;39837;47.630;18.822;2024-02-15T07:48:20;56.15;;;26.92;;
53927;SDS011;39837;47.630;18.822;2024-02-15T07:51:04;29.33;;;17.92;;
53927;SDS011;39837;47.630;18.822;2024-02-15T07:53:53;24.10;;;10.68;;
53927;SDS011;39837;47.630;18.822;2024-02-15T07:56:37;27.38;;;15.55;;
53927;SDS011;39837;47.630;18.822;2024-02-15T07:59:22;13.85;;;8.68;;
53927;SDS011;39837;47.630;18.822;2024-02-15T08:02:06;34.20;;;9.63;;
53927;SDS011;39837;47.630;18.822;2024-02-15T08:04:50;23.83;;;7.80;;
53927;SDS011;39837;47.630;18.822;2024-02-15T08:07:42;26.15;;;8.82;;
53927;SDS011;39837;47.630;18.822;2024-02-15T08:10:30;26.95;;;9.90;;
53927;SDS011;39837;47.630;18.822;2024-02-15T08:13:14;26.83;;;10.70;;
53927;SDS011;39837;47.630;18.822;2024-02-15T08:15:59;30.63;;;12.60;;
53927;SDS011;39837;47.630;18.822;2024-02-15T08:18:43;20.98;;;12.80;;
53927;SDS011;39837;47.630;18.822;2024-02-15T08:21:28;30.17;;;13.73;;
53927;SDS011;39837;47.630;18.822;2024-02-15T08:24:13;32.22;;;15.35;;
53927;SDS011;39837;47.630;18.822;2024-02-15T08:26:57;27.45;;;13.63;;
53927;SDS011;39837;47.630;18.822;2024-02-15T08:29:43;23.40;;;12.32;;
53927;SDS011;39837;47.630;18.822;2024-02-15T08:32:27;38.05;;;14.13;;
53927;SDS011;39837;47.630;18.822;2024-02-15T08:35:11;29.85;;;14.52;;
53927;SDS011;39837;47.630;18.822;2024-02-15T08:37:56;27.70;;;14.10;;
53927;SDS011;39837;47.630;18.822;2024-02-15T08:40:40;24.75;;;12.93;;
53927;SDS011;39837;47.630;18.822;2024-02-15T08:43:24;49.72;;;15.95;;
53927;SDS011;39837;47.630;18.822;2024-02-15T08:46:08;27.58;;;15.05;;
53927;SDS011;39837;47.630;18.822;2024-02-15T08:48:52;34.90;;;17.05;;
53927;SDS011;39837;47.630;18.822;2024-02-15T08:51:36;32.22;;;16.85;;
53927;SDS011;39837;47.630;18.822;2024-02-15T08:54:22;53.75;;;17.63;;
53927;SDS011;39837;47.630;18.822;2024-02-15T08:57:07;28.45;;;16.60;;
53927;SDS011;39837;47.630;18.822;2024-02-15T08:59:54;28.48;;;15.80;;
53927;SDS011;39837;47.630;18.822;2024-02-15T09:02:41;32.22;;;16.55;;
53927;SDS011;39837;47.630;18.822;2024-02-15T09:05:28;30.67;;;17.30;;
53927;SDS011;39837;47.630;18.822;2024-02-15T09:08:12;30.10;;;17.08;;
53927;SDS011;39837;47.630;18.822;2024-02-15T09:10:55;34.10;;;17.17;;
53927;SDS011;39837;47.630;18.822;2024-02-15T09:13:41;31.30;;;17.98;;
53927;SDS011;39837;47.630;18.822;2024-02-15T09:16:25;30.38;;;18.13;;
53927;SDS011;39837;47.630;18.822;2024-02-15T09:19:09;30.85;;;16.95;;
53927;SDS011;39837;47.630;18.822;2024-02-15T09:21:53;22.63;;;15.73;;
53927;SDS011;39837;47.630;18.822;2024-02-15T09:24:39;24.02;;;15.55;;
53927;SDS011;39837;47.630;18.822;2024-02-15T09:27:23;34.97;;;16.95;;
53927;SDS011;39837;47.630;18.822;2024-02-15T09:30:07;26.75;;;16.25;;
53927;SDS011;39837;47.630;18.822;2024-02-15T09:35:37;29.00;;;19.95;;
53927;SDS011;39837;47.630;18.822;2024-02-15T09:38:22;33.97;;;19.52;;
53927;SDS011;39837;47.630;18.822;2024-02-15T09:41:09;37.85;;;18.92;;
53927;SDS011;39837;47.630;18.822;2024-02-15T09:43:53;32.53;;;18.38;;
53927;SDS011;39837;47.630;18.822;2024-02-15T09:46:41;27.92;;;16.58;;
53927;SDS011;39837;47.630;18.822;2024-02-15T09:49:28;39.97;;;17.38;;
53927;SDS011;39837;47.630;18.822;2024-02-15T09:52:13;39.08;;;18.63;;
53927;SDS011;39837;47.630;18.822;2024-02-15T09:55:05;38.08;;;17.83;;
53927;SDS011;39837;47.630;18.822;2024-02-15T09:57:50;31.30;;;19.02;;
53927;SDS011;39837;47.630;18.822;2024-02-15T10:00:34;37.22;;;20.85;;
53927;SDS011;39837;47.630;18.822;2024-02-15T10:03:19;31.13;;;19.00;;
53927;SDS011;39837;47.630;18.822;2024-02-15T10:06:05;40.50;;;20.58;;
53927;SDS011;39837;47.630;18.822;2024-02-15T10:08:50;37.85;;;16.42;;
53927;SDS011;39837;47.630;18.822;2024-02-15T10:11:34;24.95;;;14.95;;
53927;SDS011;39837;47.630;18.822;2024-02-15T10:14:18;48.08;;;16.70;;
53927;SDS011;39837;47.630;18.822;2024-02-15T10:17:05;32.05;;;16.05;;
53927;SDS011;39837;47.630;18.822;2024-02-15T10:20:04;29.75;;;15.27;;
53927;SDS011;39837;47.630;18.822;2024-02-15T10:22:49;38.85;;;17.23;;
53927;SDS011;39837;47.630;18.822;2024-02-15T10:25:33;27.70;;;14.40;;
53927;SDS011;39837;47.630;18.822;2024-02-15T10:28:20;52.05;;;14.75;;
53927;SDS011;39837;47.630;18.822;2024-02-15T10:31:07;23.00;;;14.02;;
53927;SDS011;39837;47.630;18.822;2024-02-15T10:33:59;25.88;;;13.10;;
53927;SDS011;39837;47.630;18.822;2024-02-15T10:36:49;25.30;;;14.00;;
53927;SDS011;39837;47.630;18.822;2024-02-15T10:39:33;25.70;;;13.70;;
53927;SDS011;39837;47.630;18.822;2024-02-15T10:42:17;25.85;;;13.68;;
53927;SDS011;39837;47.630;18.822;2024-02-15T10:45:03;19.63;;;12.30;;
53927;SDS011;39837;47.630;18.822;2024-02-15T10:47:47;19.92;;;14.40;;
53927;SDS011;39837;47.630;18.822;2024-02-15T10:50:32;19.52;;;13.10;;
53927;SDS011;39837;47.630;18.822;2024-02-15T10:53:29;28.40;;;14.30;;
53927;SDS011;39837;47.630;18.822;2024-02-15T10:56:18;44.10;;;15.57;;
53927;SDS011;39837;47.630;18.822;2024-02-15T10:59:11;36.50;;;15.68;;
53927;SDS011;39837;47.630;18.822;2024-02-15T11:02:02;28.65;;;15.27;;
53927;SDS011;39837;47.630;18.822;2024-02-15T11:05:09;31.60;;;16.92;;
53927;SDS011;39837;47.630;18.822;2024-02-15T11:07:53;41.10;;;17.60;;
53927;SDS011;39837;47.630;18.822;2024-02-15T11:10:39;37.40;;;18.77;;
53927;SDS011;39837;47.630;18.822;2024-02-15T11:13:27;33.92;;;16.88;;
53927;SDS011;39837;47.630;18.822;2024-02-15T11:22:19;38.17;;;20.52;;
53927;SDS011;39837;47.630;18.822;2024-02-15T11:25:05;38.80;;;21.02;;
53927;SDS011;39837;47.630;18.822;2024-02-15T11:27:54;36.60;;;19.45;;
53927;SDS011;39837;47.630;18.822;2024-02-15T11:30:38;29.95;;;20.63;;
53927;SDS011;39837;47.630;18.822;2024-02-15T11:33:35;38.35;;;22.05;;
53927;SDS011;39837;47.630;18.822;2024-02-15T11:36:20;41.75;;;21.13;;
53927;SDS011;39837;47.630;18.822;2024-02-15T11:42:27;50.05;;;23.02;;
53927;SDS011;39837;47.630;18.822;2024-02-15T11:45:17;32.35;;;22.35;;
53927;SDS011;39837;47.630;18.822;2024-02-15T11:48:02;62.40;;;22.70;;
53927;SDS011;39837;47.630;18.822;2024-02-15T11:50:46;38.72;;;20.50;;
53927;SDS011;39837;47.630;18.822;2024-02-15T11:53:30;38.85;;;20.70;;
53927;SDS011;39837;47.630;18.822;2024-02-15T11:56:14;54.75;;;20.60;;
53927;SDS011;39837;47.630;18.822;2024-02-15T11:59:03;38.83;;;19.90;;
53927;SDS011;39837;47.630;18.822;2024-02-15T12:01:50;35.08;;;22.33;;
53927;SDS011;39837;47.630;18.822;2024-02-15T12:04:53;47.90;;;22.00;;
53927;SDS011;39837;47.630;18.822;2024-02-15T12:07:56;30.20;;;21.40;;
53927;SDS011;39837;47.630;18.822;2024-02-15T12:11:01;30.95;;;20.35;;
53927;SDS011;39837;47.630;18.822;2024-02-15T12:14:04;35.57;;;19.37;;
53927;SDS011;39837;47.630;18.822;2024-02-15T12:17:08;32.40;;;18.58;;
53927;SDS011;39837;47.630;18.822;2024-02-15T12:20:13;41.47;;;18.07;;
53927;SDS011;39837;47.630;18.822;2024-02-15T12:22:57;28.58;;;18.13;;
53927;SDS011;39837;47.630;18.822;2024-02-15T12:25:50;30.08;;;18.60;;
53927;SDS011;39837;47.630;18.822;2024-02-15T12:28:35;29.15;;;18.60;;
53927;SDS011;39837;47.630;18.822;2024-02-15T12:31:20;33.25;;;17.70;;
53927;SDS011;39837;47.630;18.822;2024-02-15T12:34:04;27.60;;;17.00;;
53927;SDS011;39837;47.630;18.822;2024-02-15T12:37:04;25.88;;;17.23;;
53927;SDS011;39837;47.630;18.822;2024-02-15T12:39:49;31.75;;;18.13;;
53927;SDS011;39837;47.630;18.822;2024-02-15T12:42:37;32.88;;;17.77;;
53927;SDS011;39837;47.630;18.822;2024-02-15T12:45:24;35.50;;;20.90;;
53927;SDS011;39837;47.630;18.822;2024-02-15T12:48:12;54.70;;;21.13;;
53927;SDS011;39837;47.630;18.822;2024-02-15T12:51:12;53.35;;;21.77;;
53927;SDS011;39837;47.630;18.822;2024-02-15T12:54:16;41.28;;;20.10;;
53927;SDS011;39837;47.630;18.822;2024-02-15T12:57:22;34.00;;;22.20;;
53927;SDS011;39837;47.630;18.822;2024-02-15T13:00:24;40.50;;;23.92;;
53927;SDS011;39837;47.630;18.822;2024-02-15T13:03:18;34.80;;;22.77;;
53927;SDS011;39837;47.630;18.822;2024-02-15T13:06:06;41.38;;;25.75;;
53927;SDS011;39837;47.630;18.822;2024-02-15T13:08:56;49.72;;;23.85;;
53927;SDS011;39837;47.630;18.822;2024-02-15T13:11:52;38.53;;;22.60;;
53927;SDS011;39837;47.630;18.822;2024-02-15T13:14:51;39.53;;;23.20;;
53927;SDS011;39837;47.630;18.822;2024-02-15T13:17:47;42.38;;;23.38;;
53927;SDS011;39837;47.630;18.822;2024-02-15T13:20:37;41.55;;;23.55;;
53927;SDS011;39837;47.630;18.822;2024-02-15T13:23:22;49.17;;;26.48;;
53927;SDS011;39837;47.630;18.822;2024-02-15T13:26:06;41.60;;;24.27;;
53927;SDS011;39837;47.630;18.822;2024-02-15T13:28:52;38.22;;;24.00;;
53927;SDS011;39837;47.630;18.822;2024-02-15T13:31:36;40.08;;;23.95;;
53927;SDS011;39837;47.630;18.822;2024-02-15T13:34:20;52.78;;;24.48;;
53927;SDS011;39837;47.630;18.822;2024-02-15T13:37:04;42.70;;;24.52;;
53927;SDS011;39837;47.630;18.822;2024-02-15T13:39:49;43.20;;;23.67;;
53927;SDS011;39837;47.630;18.822;2024-02-15T13:42:34;42.53;;;24.67;;
53927;SDS011;39837;47.630;18.822;2024-02-15T13:45:22;40.67;;;23.23;;
53927;SDS011;39837;47.630;18.822;2024-02-15T13:48:07;42.63;;;23.27;;
53927;SDS011;39837;47.630;18.822;2024-02-15T13:50:52;53.65;;;27.10;;
53927;SDS011;39837;47.630;18.822;2024-02-15T13:53:36;37.45;;;22.95;;
53927;SDS011;39837;47.630;18.822;2024-02-15T13:56:21;38.97;;;22.30;;
53927;SDS011;39837;47.630;18.822;2024-02-15T13:59:05;41.63;;;23.17;;
53927;SDS011;39837;47.630;18.822;2024-02-15T14:01:50;36.33;;;24.50;;
53927;SDS011;39837;47.630;18.822;2024-02-15T14:04:34;45.75;;;25.13;;
53927;SDS011;39837;47.630;18.822;2024-02-15T14:07:19;50.42;;;25.05;;
53927;SDS011;39837;47.630;18.822;2024-02-15T14:10:03;44.42;;;23.98;;
53927;SDS011;39837;47.630;18.822;2024-02-15T14:12:48;47.10;;;24.38;;
53927;SDS011;39837;47.630;18.822;2024-02-15T14:15:33;48.63;;;25.85;;
53927;SDS011;39837;47.630;18.822;2024-02-15T14:18:20;39.88;;;24.02;;
53927;SDS011;39837;47.630;18.822;2024-02-15T14:21:04;49.25;;;24.30;;
53927;SDS011;39837;47.630;18.822;2024-02-15T14:23:49;49.67;;;24.50;;
53927;SDS011;39837;47.630;18.822;2024-02-15T14:26:33;40.40;;;25.10;;
53927;SDS011;39837;47.630;18.822;2024-02-15T14:29:17;56.88;;;25.10;;
53927;SDS011;39837;47.630;18.822;2024-02-15T14:32:04;45.80;;;24.83;;
53927;SDS011;39837;47.630;18.822;2024-02-15T14:35:07;43.63;;;26.80;;
53927;SDS011;39837;47.630;18.822;2024-02-15T14:37:51;47.72;;;27.90;;
53927;SDS011;39837;47.630;18.822;2024-02-15T14:40:35;47.05;;;27.50;;
53927;SDS011;39837;47.630;18.822;2024-02-15T14:43:35;41.58;;;26.30;;
53927;SDS011;39837;47.630;18.822;2024-02-15T14:46:20;49.15;;;27.15;;
53927;SDS011;39837;47.630;18.822;2024-02-15T14:49:04;54.72;;;25.65;;
53927;SDS011;39837;47.630;18.822;2024-02-15T14:54:34;50.63;;;29.60;;
53927;SDS011;39837;47.630;18.822;2024-02-15T14:57:20;65.22;;;30.60;;
53927;SDS011;39837;47.630;18.822;2024-02-15T15:00:04;45.08;;;27.30;;
53927;SDS011;39837;47.630;18.822;2024-02-15T15:02:54;48.00;;;27.52;;
53927;SDS011;39837;47.630;18.822;2024-02-15T15:05:40;50.67;;;30.20;;
53927;SDS011;39837;47.630;18.822;2024-02-15T15:08:46;51.47;;;28.90;;
53927;SDS011;39837;47.630;18.822;2024-02-15T15:11:49;96.93;;;45.72;;
53927;SDS011;39837;47.630;18.822;2024-02-15T15:14:52;70.00;;;35.20;;
53927;SDS011;39837;47.630;18.822;2024-02-15T15:17:36;51.65;;;30.35;;
53927;SDS011;39837;47.630;18.822;2024-02-15T15:20:22;60.22;;;30.45;;
53927;SDS011;39837;47.630;18.822;2024-02-15T15:23:08;58.22;;;30.38;;
53927;SDS011;39837;47.630;18.822;2024-02-15T15:25:53;78.35;;;39.75;;
53927;SDS011;39837;47.630;18.822;2024-02-15T15:28:37;81.03;;;39.30;;
53927;SDS011;39837;47.630;18.822;2024-02-15T15:31:21;71.15;;;38.63;;
53927;SDS011;39837;47.630;18.822;2024-02-15T15:34:06;63.75;;;33.60;;
53927;SDS011;39837;47.630;18.822;2024-02-15T15:36:50;54.08;;;32.05;;
53927;SDS011;39837;47.630;18.822;2024-02-15T15:39:38;60.08;;;30.40;;
53927;SDS011;39837;47.630;18.822;2024-02-15T15:42:22;57.50;;;30.23;;
53927;SDS011;39837;47.630;18.822;2024-02-15T15:45:06;52.65;;;30.10;;
53927;SDS011;39837;47.630;18.822;2024-02-15T15:50:36;54.25;;;28.98;;
53927;SDS011;39837;47.630;18.822;2024-02-15T15:53:20;56.65;;;29.52;;
53927;SDS011;39837;47.630;18.822;2024-02-15T15:56:04;53.75;;;30.20;;
53927;SDS011;39837;47.630;18.822;2024-02-15T15:58:49;44.97;;;27.85;;
53927;SDS011;39837;47.630;18.822;2024-02-15T16:01:33;56.60;;;29.58;;
53927;SDS011;39837;47.630;18.822;2024-02-15T16:04:17;54.63;;;28.85;;
53927;SDS011;39837;47.630;18.822;2024-02-15T16:07:02;53.88;;;30.42;;
53927;SDS011;39837;47.630;18.822;2024-02-15T16:09:46;68.22;;;30.48;;
53927;SDS011;39837;47.630;18.822;2024-02-15T16:12:31;59.75;;;33.35;;
53927;SDS011;39837;47.630;18.822;2024-02-15T16:15:18;43.65;;;28.42;;
53927;SDS011;39837;47.630;18.822;2024-02-15T16:18:03;50.60;;;28.05;;
53927;SDS011;39837;47.630;18.822;2024-02-15T16:20:47;52.22;;;31.27;;
53927;SDS011;39837;47.630;18.822;2024-02-15T16:23:31;57.08;;;30.40;;
53927;SDS011;39837;47.630;18.822;2024-02-15T16:26:15;46.42;;;28.75;;
53927;SDS011;39837;47.630;18.822;2024-02-15T16:28:59;57.95;;;31.73;;
53927;SDS011;39837;47.630;18.822;2024-02-15T16:31:43;66.07;;;34.67;;
53927;SDS011;39837;47.630;18.822;2024-02-15T16:34:29;58.88;;;32.17;;